Time;durP1;ratioP1;P1;durP2;ratioP2;P2;SDS_P1;SDS_P2;PMS_P1;PMS_P2;Temp;Humidity;BMP_temperature;BMP_pressure;BME280_temperature;BME280_humidity;BME280_pressure;Samples;Min_cycle;Max_cycle;Signal;HPM_P1;HPM_P2
2022/01/16 00:04:06;;;;;;;49.80;17.52;;;2.50;99.90;;;;;;5078208;28;20130;-77
2022/01/16 00:04:55;;;;;;;58.88;19.25;;;2.50;99.90;;;;;;5109483;27;20538;-77
2022/01/16 00:07:20;;;;;;;59.88;19.35;;;2.90;99.90;;;;;;5100801;28;20067;-77
2022/01/16 00:09:46;;;;;;;58.58;18.63;;;2.50;99.90;;;;;;5100373;28;20043;-77
2022/01/16 00:12:12;;;;;;;63.03;19.48;;;3.80;99.90;;;;;;5104949;28;20052;-77
2022/01/16 00:14:37;;;;;;;71.35;20.90;;;4.00;99.90;;;;;;5122756;27;20058;-77
2022/01/16 00:17:04;;;;;;;57.42;19.38;;;2.50;99.90;;;;;;5097377;27;20037;-77
2022/01/16 00:19:30;;;;;;;56.40;20.20;;;2.40;99.90;;;;;;5124832;27;20626;-77
2022/01/16 00:21:57;;;;;;;55.40;19.80;;;2.50;99.90;;;;;;5114362;27;20070;-77
2022/01/16 00:24:23;;;;;;;56.20;19.58;;;2.40;99.90;;;;;;5098413;27;20050;-76
2022/01/16 00:26:49;;;;;;;59.67;21.48;;;2.80;99.90;;;;;;5117159;27;20376;-77
2022/01/16 00:29:15;;;;;;;63.72;20.20;;;3.20;99.90;;;;;;5104484;27;20047;-77
2022/01/16 00:31:41;;;;;;;56.97;20.35;;;2.30;99.90;;;;;;5080947;28;20047;-77
2022/01/16 00:34:08;;;;;;;60.28;20.92;;;2.40;99.90;;;;;;5119248;27;20047;-77
2022/01/16 00:36:35;;;;;;;58.22;21.00;;;2.50;99.90;;;;;;5117998;27;20074;-77
2022/01/16 00:39:00;;;;;;;;;;;2.50;99.90;;;;;;5083643;28;20054;-77
2022/01/16 00:41:26;;;;;;;70.75;24.08;;;2.30;99.90;;;;;;5116107;27;19916;-77
2022/01/16 00:43:53;;;;;;;61.25;22.08;;;2.20;99.90;;;;;;5120781;27;20392;-77
2022/01/16 00:46:20;;;;;;;57.40;19.95;;;2.20;99.90;;;;;;5083766;28;20084;-77
2022/01/16 00:48:45;;;;;;;68.07;22.23;;;2.20;99.90;;;;;;5123177;28;20039;-77
2022/01/16 00:51:13;;;;;;;51.05;18.25;;;2.10;99.90;;;;;;5112507;28;20024;-77
2022/01/16 00:53:39;;;;;;;59.95;20.98;;;3.00;99.90;;;;;;5097050;28;20035;-77
2022/01/16 00:56:06;;;;;;;62.33;20.35;;;2.30;99.90;;;;;;5120233;28;20075;-77
2022/01/16 00:58:32;;;;;;;64.47;22.00;;;2.30;99.90;;;;;;5121797;28;20039;-77
2022/01/16 01:00:58;;;;;;;69.60;23.77;;;2.20;99.90;;;;;;5115255;28;20106;-77
2022/01/16 01:03:25;;;;;;;67.40;23.30;;;2.20;99.90;;;;;;5102103;28;20051;-77
2022/01/16 01:05:51;;;;;;;65.25;22.80;;;2.20;99.90;;;;;;5114386;28;20039;-77
2022/01/16 01:08:17;;;;;;;75.75;23.92;;;2.10;99.90;;;;;;5118389;28;20075;-77
2022/01/16 01:10:47;;;;;;;76.90;25.38;;;2.10;99.90;;;;;;5101019;28;20050;-77
2022/01/16 01:13:23;;;;;;;74.85;24.25;;;2.10;99.90;;;;;;5094959;28;20085;-77
2022/01/16 01:15:57;;;;;;;84.25;25.92;;;2.10;99.90;;;;;;5112275;28;20048;-77
2022/01/16 01:18:23;;;;;;;83.25;28.05;;;2.10;99.90;;;;;;5109406;28;20042;-77
2022/01/16 01:20:51;;;;;;;77.35;25.10;;;2.10;99.90;;;;;;5118004;28;20122;-77
2022/01/16 01:23:17;;;;;;;91.97;27.92;;;2.10;99.90;;;;;;5122534;28;20126;-77
2022/01/16 01:25:43;;;;;;;87.45;26.92;;;3.20;99.90;;;;;;5116600;28;20118;-77
2022/01/16 01:28:11;;;;;;;70.68;24.50;;;2.40;99.90;;;;;;5099222;28;22067;-77
2022/01/16 01:30:40;;;;;;;84.50;28.05;;;3.30;99.90;;;;;;5116780;28;20125;-77
2022/01/16 01:33:06;;;;;;;87.38;27.75;;;3.40;99.90;;;;;;5124016;28;20043;-77
2022/01/16 01:35:39;;;;;;;71.97;24.08;;;2.20;99.90;;;;;;5103403;28;20125;-85
2022/01/16 01:38:07;;;;;;;77.53;28.15;;;2.30;99.90;;;;;;5126736;28;20407;-85
2022/01/16 01:40:34;;;;;;;72.93;25.58;;;3.00;99.90;;;;;;5128207;28;20047;-85
2022/01/16 01:51:24;;;;;;;79.00;27.52;;;2.30;99.90;;;;;;5120463;27;20562;-85
2022/01/16 01:53:51;;;;;;;77.82;26.70;;;2.30;99.90;;;;;;5120315;27;20035;-85
2022/01/16 01:56:18;;;;;;;72.22;25.83;;;3.20;99.90;;;;;;5121186;27;20047;-85
2022/01/16 01:58:44;;;;;;;76.85;26.50;;;2.30;99.90;;;;;;5108411;27;20239;-85
2022/01/16 02:01:11;;;;;;;78.57;26.58;;;2.30;99.90;;;;;;5105916;27;20068;-85
2022/01/16 02:03:42;;;;;;;76.40;27.17;;;2.20;99.90;;;;;;5118168;27;20039;-85
2022/01/16 02:06:18;;;;;;;77.45;26.90;;;2.30;99.90;;;;;;5130492;27;20035;-85
2022/01/16 02:08:45;;;;;;;85.82;28.02;;;2.60;99.90;;;;;;5125831;27;20043;-85
2022/01/16 02:11:16;;;;;;;83.28;26.40;;;2.30;99.90;;;;;;5130578;27;20050;-85
2022/01/16 02:13:56;;;;;;;84.78;26.70;;;2.40;99.90;;;;;;5127389;27;20086;-86
2022/01/16 02:28:14;;;;;;;91.47;28.95;;;2.30;99.90;;;;;;5128610;27;20460;-84
2022/01/16 02:35:40;;;;;;;108.28;30.13;;;2.20;99.90;;;;;;5121388;27;20047;-85
2022/01/16 02:38:09;;;;;;;101.63;30.50;;;2.20;99.90;;;;;;5132896;27;20039;-85
2022/01/16 02:40:37;;;;;;;105.28;28.48;;;2.20;99.90;;;;;;5120595;27;20442;-85
2022/01/16 02:43:04;;;;;;;91.38;26.58;;;2.20;99.90;;;;;;5115533;27;20049;-85
2022/01/16 02:45:32;;;;;;;108.55;28.98;;;2.20;99.90;;;;;;5122783;27;20376;-85
2022/01/16 02:48:05;;;;;;;103.43;29.63;;;2.20;99.90;;;;;;5118544;27;20123;-84
2022/01/16 02:50:35;;;;;;;105.97;29.40;;;2.20;99.90;;;;;;5120460;27;20044;-85
2022/01/16 02:53:11;;;;;;;111.07;28.95;;;2.20;99.90;;;;;;5121934;27;20027;-85
2022/01/16 02:55:44;;;;;;;101.03;28.70;;;2.40;99.90;;;;;;5116260;27;20070;-85
2022/01/16 02:58:09;;;;;;;103.45;30.70;;;2.20;99.90;;;;;;5130088;27;20047;-84
2022/01/16 03:00:36;;;;;;;116.43;31.38;;;2.20;99.90;;;;;;5112351;27;20548;-85
2022/01/16 03:03:02;;;;;;;113.93;29.63;;;2.20;99.90;;;;;;5117897;27;20051;-85
2022/01/16 03:05:28;;;;;;;113.80;29.58;;;2.20;99.90;;;;;;5119515;27;20035;-85
2022/01/16 03:07:53;;;;;;;103.95;28.77;;;2.20;99.90;;;;;;5122643;27;20050;-85
2022/01/16 03:12:50;;;;;;;114.85;30.08;;;2.50;99.90;;;;;;5122917;27;20071;-85
2022/01/16 03:15:16;;;;;;;;;;;3.20;99.90;;;;;;5120309;27;20048;-85
2022/01/16 03:23:12;;;;;;;111.65;32.95;;;2.30;99.90;;;;;;5125344;27;20070;-84
2022/01/16 03:25:38;;;;;;;111.63;31.25;;;2.30;99.90;;;;;;5122913;27;20074;-85
2022/01/16 03:28:04;;;;;;;125.65;32.33;;;2.30;99.90;;;;;;5117158;27;20050;-85
2022/01/16 03:30:30;;;;;;;119.35;31.38;;;2.40;99.90;;;;;;5118199;27;20026;-84
2022/01/16 03:32:56;;;;;;;101.47;29.27;;;2.40;99.90;;;;;;5122710;27;20130;-85
2022/01/16 03:35:22;;;;;;;111.47;30.90;;;2.40;99.90;;;;;;5119170;27;20038;-85
2022/01/16 03:37:48;;;;;;;105.93;29.45;;;2.40;99.90;;;;;;5120679;27;20541;-85
2022/01/16 03:40:14;;;;;;;114.40;32.40;;;2.40;99.90;;;;;;5120427;27;20027;-85
2022/01/16 03:42:41;;;;;;;117.15;31.60;;;2.40;99.90;;;;;;5121070;27;20038;-85
2022/01/16 03:45:08;;;;;;;110.85;29.92;;;2.30;99.90;;;;;;5103214;27;20035;-85
2022/01/16 03:47:35;;;;;;;129.90;34.17;;;2.30;99.90;;;;;;5121331;27;20410;-85
2022/01/16 03:50:01;;;;;;;125.35;32.47;;;3.40;99.90;;;;;;5128407;27;20526;-85
2022/01/16 03:52:26;;;;;;;114.18;30.58;;;2.50;99.90;;;;;;5092496;28;20118;-84
2022/01/16 03:54:52;;;;;;;114.43;31.13;;;2.50;99.90;;;;;;5108033;28;20120;-85
2022/01/16 03:57:18;;;;;;;106.82;29.00;;;2.60;99.90;;;;;;5101639;27;20035;-85
2022/01/16 03:59:44;;;;;;;97.28;27.25;;;2.50;99.90;;;;;;5123610;27;20046;-85
2022/01/16 04:02:10;;;;;;;121.32;32.20;;;2.60;99.90;;;;;;5120030;27;20035;-85
2022/01/16 04:04:36;;;;;;;114.43;30.75;;;2.60;99.90;;;;;;5106326;27;20069;-84
2022/01/16 04:07:01;;;;;;;109.00;27.45;;;2.40;99.90;;;;;;5128364;27;20031;-85
2022/01/16 04:09:28;;;;;;;116.80;30.77;;;2.60;99.90;;;;;;5125593;27;20035;-85
2022/01/16 04:11:56;;;;;;;131.00;33.35;;;2.70;99.90;;;;;;5129687;27;20387;-85
2022/01/16 04:17:22;;;;;;;128.60;33.03;;;2.80;99.90;;;;;;5087710;27;20514;-85
2022/01/16 04:19:48;;;;;;;120.22;30.40;;;1.80;99.90;;;;;;5118417;27;20683;-85
2022/01/16 04:22:14;;;;;;;134.52;35.90;;;2.70;99.90;;;;;;5128199;27;20839;-85
2022/01/16 04:24:40;;;;;;;134.02;34.25;;;2.90;99.90;;;;;;5101537;28;20046;-85
2022/01/16 04:27:08;;;;;;;139.20;34.08;;;2.70;99.90;;;;;;5115408;27;20126;-85
2022/01/16 04:29:33;;;;;;;131.30;32.90;;;2.80;99.90;;;;;;5095495;28;20043;-84
2022/01/16 04:31:59;;;;;;;144.40;34.13;;;2.70;99.90;;;;;;5127901;27;20031;-85
2022/01/16 04:34:25;;;;;;;112.90;30.05;;;3.00;99.90;;;;;;5100938;27;20057;-85
2022/01/16 04:36:51;;;;;;;130.85;31.23;;;3.20;99.90;;;;;;5120694;27;20039;-85
2022/01/16 04:39:19;;;;;;;141.70;34.38;;;2.80;99.90;;;;;;5123440;27;20043;-85
2022/01/16 04:44:31;;;;;;;136.52;33.53;;;2.90;99.90;;;;;;5123477;27;20051;-85
2022/01/16 04:46:57;;;;;;;122.18;29.45;;;2.80;99.90;;;;;;5115404;27;20119;-85
2022/01/16 04:49:23;;;;;;;132.13;32.10;;;2.90;99.90;;;;;;5100852;28;20062;-85
2022/01/16 04:51:49;;;;;;;133.70;32.67;;;3.00;99.90;;;;;;5121038;28;20035;-85
2022/01/16 04:54:15;;;;;;;156.05;36.35;;;2.90;99.90;;;;;;5120339;28;20046;-85
2022/01/16 04:56:42;;;;;;;147.70;35.10;;;3.30;99.90;;;;;;5122813;28;20395;-85
2022/01/16 04:59:07;;;;;;;139.48;33.08;;;4.10;99.90;;;;;;5115919;28;20071;-85
2022/01/16 05:01:33;;;;;;;132.20;30.27;;;3.00;99.90;;;;;;5117407;28;20051;-85
2022/01/16 05:03:59;;;;;;;106.35;27.85;;;3.40;99.90;;;;;;5083282;28;20108;-85
2022/01/16 05:06:25;;;;;;;129.82;30.60;;;3.60;99.90;;;;;;5103122;28;20036;-85
2022/01/16 05:08:51;;;;;;;143.00;33.10;;;3.10;99.90;;;;;;5128267;28;20061;-85
2022/01/16 05:11:24;;;;;;;161.00;37.70;;;3.10;99.90;;;;;;5121310;28;20031;-85
2022/01/16 05:19:08;;;;;;;100.82;25.40;;;3.40;99.90;;;;;;5105414;28;20042;-85
2022/01/16 05:21:35;;;;;;;122.60;29.85;;;3.10;99.90;;;;;;5122182;27;20123;-85
2022/01/16 05:24:03;;;;;;;;;;;3.10;99.90;;;;;;5120008;27;20403;-85
2022/01/16 05:26:29;;;;;;;149.95;35.35;;;3.20;99.90;;;;;;5128948;27;19948;-85
2022/01/16 05:28:58;;;;;;;135.68;32.97;;;3.20;99.90;;;;;;5129230;27;20495;-84
2022/01/16 05:31:23;;;;;;;175.73;37.45;;;3.30;99.90;;;;;;5101810;27;20042;-84
2022/01/16 05:33:50;;;;;;;148.50;31.98;;;4.80;99.90;;;;;;5124997;27;20032;-85
2022/01/16 05:36:15;;;;;;;168.98;33.83;;;4.10;99.90;;;;;;5116517;27;20416;-85
2022/01/16 05:38:41;;;;;;;167.75;34.72;;;3.30;99.90;;;;;;5105634;27;20046;-85
2022/01/16 05:41:07;;;;;;;148.88;31.73;;;3.30;99.90;;;;;;5124008;27;20074;-85
2022/01/16 05:43:33;;;;;;;176.07;38.57;;;3.30;99.90;;;;;;5098470;27;20114;-85
2022/01/16 05:45:58;;;;;;;170.82;34.33;;;3.60;99.90;;;;;;5106818;27;20325;-85
2022/01/16 05:48:26;;;;;;;177.77;35.57;;;3.40;99.90;;;;;;5107048;27;20088;-85
2022/01/16 05:50:51;;;;;;;189.77;38.30;;;3.30;99.90;;;;;;5114102;27;20321;-85
2022/01/16 05:53:17;;;;;;;183.20;35.53;;;3.40;99.90;;;;;;5102226;27;20133;-86
2022/01/16 05:55:43;;;;;;;175.30;37.70;;;3.30;99.90;;;;;;5104728;28;20038;-85
2022/01/16 05:58:09;;;;;;;154.77;33.07;;;3.30;99.90;;;;;;5126886;27;20079;-85
2022/01/16 06:00:37;;;;;;;171.95;38.55;;;3.40;99.90;;;;;;5131302;27;20060;-85
2022/01/16 06:03:04;;;;;;;156.57;33.45;;;3.40;99.90;;;;;;5101374;27;20039;-85
2022/01/16 06:05:29;;;;;;;;;;;3.50;99.90;;;;;;5113847;27;20472;-85
2022/01/16 06:08:01;;;;;;;180.15;37.22;;;3.60;99.90;;;;;;5126759;27;19919;-85
2022/01/16 06:10:27;;;;;;;179.38;36.28;;;3.40;99.90;;;;;;5126830;27;20039;-85
2022/01/16 06:12:54;;;;;;;172.45;38.55;;;3.50;99.90;;;;;;5120747;27;20454;-85
2022/01/16 06:15:21;;;;;;;137.25;32.67;;;3.50;99.90;;;;;;5119943;27;20048;-85
2022/01/16 06:17:47;;;;;;;163.60;35.13;;;3.50;99.90;;;;;;5120997;27;20436;-85
2022/01/16 06:20:16;;;;;;;;;;;3.50;99.90;;;;;;5123157;27;20039;-85
2022/01/16 06:22:45;;;;;;;176.35;38.95;;;4.40;99.90;;;;;;5122075;27;19931;-85
2022/01/16 06:25:12;;;;;;;164.45;37.20;;;4.10;99.90;;;;;;5121956;27;20539;-85
2022/01/16 06:27:39;;;;;;;189.02;40.05;;;4.00;99.90;;;;;;5104065;27;20027;-85
2022/01/16 06:30:07;;;;;;;;;;;3.50;99.90;;;;;;5106049;27;20461;-85
2022/01/16 06:32:33;;;;;;;189.00;41.65;;;3.50;99.90;;;;;;5121335;27;21041;-84
2022/01/16 06:34:59;;;;;;;186.23;39.88;;;3.50;99.90;;;;;;5117748;27;20079;-85
2022/01/16 06:37:25;;;;;;;176.70;38.78;;;4.60;99.90;;;;;;5133440;27;20164;-85
2022/01/16 06:39:51;;;;;;;175.35;39.10;;;3.40;99.90;;;;;;5127331;27;20043;-85
2022/01/16 06:42:16;;;;;;;188.40;39.33;;;3.90;99.90;;;;;;5125554;27;20103;-85
2022/01/16 06:44:42;;;;;;;166.93;37.75;;;3.50;99.90;;;;;;5118147;27;20312;-85
2022/01/16 06:47:08;;;;;;;174.45;40.50;;;4.40;99.90;;;;;;5127963;27;20043;-85
2022/01/16 06:49:34;;;;;;;169.38;37.20;;;4.10;99.90;;;;;;5110088;27;20077;-84
2022/01/16 06:52:00;;;;;;;173.20;38.65;;;3.60;99.90;;;;;;5117586;27;20054;-85
2022/01/16 06:54:25;;;;;;;166.20;38.07;;;3.60;99.90;;;;;;5125471;27;20039;-84
2022/01/16 06:56:51;;;;;;;139.90;33.00;;;4.90;99.90;;;;;;5119847;27;20039;-85
2022/01/16 06:59:17;;;;;;;182.55;40.20;;;3.70;99.90;;;;;;5123300;27;20277;-85
2022/01/16 07:01:43;;;;;;;155.02;39.63;;;3.80;99.90;;;;;;5119490;27;20082;-85
2022/01/16 07:04:08;;;;;;;143.60;35.83;;;4.00;99.90;;;;;;5108146;27;20104;-84
2022/01/16 07:06:34;;;;;;;171.77;40.57;;;3.80;99.90;;;;;;5112008;28;20300;-85
2022/01/16 07:09:00;;;;;;;156.73;40.22;;;3.80;99.90;;;;;;5117666;27;20480;-85
2022/01/16 07:11:25;;;;;;;157.30;38.50;;;3.80;99.90;;;;;;5122517;27;20048;-85
2022/01/16 07:13:51;;;;;;;151.33;39.70;;;3.80;99.90;;;;;;5096895;28;20054;-85
2022/01/16 07:16:17;;;;;;;155.05;37.90;;;4.90;99.90;;;;;;5124787;27;20122;-85
2022/01/16 07:18:42;;;;;;;158.45;38.47;;;4.00;99.90;;;;;;5113838;27;20064;-85
2022/01/16 07:21:13;;;;;;;158.07;39.70;;;4.20;99.90;;;;;;5105178;27;20038;-85
2022/01/16 07:23:53;;;;;;;154.15;37.30;;;4.00;99.90;;;;;;5116747;27;20040;-84
2022/01/16 07:26:19;;;;;;;145.85;38.92;;;4.00;99.90;;;;;;5119562;27;20130;-85
2022/01/16 07:28:45;;;;;;;138.05;37.55;;;4.70;99.90;;;;;;5085225;28;20529;-84
2022/01/16 07:31:11;;;;;;;;;;;4.20;99.90;;;;;;5125639;27;20515;-85
2022/01/16 07:33:37;;;;;;;145.68;39.17;;;4.10;99.90;;;;;;5121097;27;19919;-84
2022/01/16 07:36:03;;;;;;;129.95;37.45;;;4.20;99.90;;;;;;5119419;27;20039;-85
2022/01/16 07:38:29;;;;;;;133.80;37.55;;;4.20;99.90;;;;;;5120127;27;20039;-85
2022/01/16 07:40:55;;;;;;;142.65;37.97;;;4.10;99.90;;;;;;5110888;27;20035;-84
2022/01/16 07:43:20;;;;;;;136.40;39.80;;;4.20;99.90;;;;;;5129354;27;20039;-84
2022/01/16 07:45:46;;;;;;;125.03;37.83;;;4.20;99.90;;;;;;5103588;27;20395;-85
2022/01/16 07:48:12;;;;;;;135.25;37.88;;;5.40;99.90;;;;;;5119213;27;20037;-85
2022/01/16 07:50:39;;;;;;;132.75;38.42;;;4.30;99.90;;;;;;5126328;27;20035;-85
2022/01/16 07:53:06;;;;;;;126.72;38.60;;;4.30;99.90;;;;;;5105373;28;20088;-85
2022/01/16 07:55:32;;;;;;;129.63;39.55;;;4.30;99.90;;;;;;5122392;27;20035;-85
2022/01/16 07:57:58;;;;;;;118.53;35.88;;;4.30;99.90;;;;;;5100721;27;20059;-85
2022/01/16 08:00:25;;;;;;;;;;;4.30;99.90;;;;;;5121371;27;20035;-84
2022/01/16 08:02:51;;;;;;;122.00;36.55;;;4.50;99.90;;;;;;5106104;27;19937;-85
2022/01/16 08:05:18;;;;;;;117.88;35.45;;;4.80;99.90;;;;;;5118727;27;20058;-85
2022/01/16 08:07:44;;;;;;;117.22;37.65;;;4.40;99.90;;;;;;5119007;27;20058;-85
2022/01/16 08:10:10;;;;;;;113.40;35.63;;;4.40;99.90;;;;;;5116018;27;20048;-85
2022/01/16 08:12:37;;;;;;;124.53;35.70;;;4.60;99.90;;;;;;5118801;27;20512;-84
2022/01/16 08:15:04;;;;;;;104.57;33.58;;;4.40;99.90;;;;;;5102106;28;20083;-84
2022/01/16 08:17:30;;;;;;;108.30;36.25;;;4.40;99.90;;;;;;5101224;28;20039;-85
2022/01/16 08:19:56;;;;;;;108.70;35.33;;;4.40;99.90;;;;;;5115653;27;20043;-85
2022/01/16 08:22:22;;;;;;;111.93;34.17;;;4.90;99.90;;;;;;5123216;27;20049;-85
2022/01/16 08:24:47;;;;;;;102.30;35.13;;;5.10;99.90;;;;;;5111317;27;20505;-85
2022/01/16 08:27:15;;;;;;;101.55;33.58;;;4.50;99.90;;;;;;5115840;27;20122;-84
2022/01/16 08:29:41;;;;;;;96.78;33.25;;;4.50;99.90;;;;;;5108938;27;20042;-79
2022/01/16 08:32:08;;;;;;;98.72;34.25;;;4.60;99.90;;;;;;5113553;28;20069;-79
2022/01/16 08:34:33;;;;;;;100.03;33.75;;;4.70;99.90;;;;;;5127846;27;20133;-78
2022/01/16 08:36:59;;;;;;;94.57;33.33;;;4.70;99.90;;;;;;5120127;27;20125;-79
2022/01/16 08:39:25;;;;;;;89.68;32.20;;;4.70;99.90;;;;;;5115832;27;20057;-79
2022/01/16 08:41:51;;;;;;;99.50;33.45;;;4.70;99.90;;;;;;5119872;27;20084;-79
2022/01/16 08:44:17;;;;;;;89.72;31.65;;;5.40;99.90;;;;;;5125960;27;20035;-79
2022/01/16 08:46:43;;;;;;;99.63;31.60;;;4.70;99.90;;;;;;5120270;28;20455;-79
2022/01/16 08:49:09;;;;;;;94.43;33.43;;;4.80;99.90;;;;;;5106497;27;20039;-79
2022/01/16 08:51:34;;;;;;;90.07;32.17;;;4.90;99.90;;;;;;5123733;28;20273;-79
2022/01/16 08:54:00;;;;;;;83.97;30.03;;;5.60;99.90;;;;;;5117132;28;20093;-79
2022/01/16 08:56:26;;;;;;;90.03;31.63;;;5.00;99.90;;;;;;5107763;28;20039;-79
2022/01/16 08:58:51;;;;;;;78.57;29.30;;;5.10;99.90;;;;;;5125991;27;20404;-79
2022/01/16 09:01:17;;;;;;;92.97;32.80;;;5.00;99.90;;;;;;5124745;27;20284;-78
2022/01/16 09:03:43;;;;;;;79.18;30.60;;;5.00;99.90;;;;;;5124038;27;20281;-79
2022/01/16 09:06:09;;;;;;;81.27;31.47;;;5.10;99.90;;;;;;5112481;27;20062;-79
2022/01/16 09:08:34;;;;;;;74.10;28.58;;;5.10;99.90;;;;;;5106679;27;20031;-80
2022/01/16 09:11:01;;;;;;;83.95;28.67;;;5.10;99.90;;;;;;5128561;27;20482;-80
2022/01/16 09:13:26;;;;;;;84.88;31.63;;;5.20;99.90;;;;;;5124367;27;20051;-80
2022/01/16 09:15:52;;;;;;;80.15;29.77;;;5.20;99.90;;;;;;5122608;27;20055;-80
2022/01/16 09:18:19;;;;;;;64.15;28.38;;;5.20;99.90;;;;;;5126728;27;20046;-80
2022/01/16 09:20:46;;;;;;;68.03;29.52;;;5.30;99.90;;;;;;5122631;27;20043;-79
2022/01/16 09:23:12;;;;;;;70.35;28.80;;;5.30;99.90;;;;;;5129132;27;20108;-80
2022/01/16 09:25:38;;;;;;;63.92;28.80;;;5.80;99.90;;;;;;5118898;27;20031;-80
2022/01/16 09:28:04;;;;;;;60.90;26.90;;;5.50;99.90;;;;;;5119279;27;20903;-80
2022/01/16 09:30:30;;;;;;;;;;;5.50;99.90;;;;;;5105133;27;20040;-80
2022/01/16 09:32:56;;;;;;;59.70;25.35;;;5.60;99.90;;;;;;5115386;27;19923;-80
2022/01/16 09:35:22;;;;;;;55.45;24.95;;;5.60;99.90;;;;;;5123284;27;20043;-79
2022/01/16 09:37:48;;;;;;;53.70;24.93;;;5.90;99.90;;;;;;5124613;27;20383;-79
2022/01/16 09:40:17;;;;;;;57.40;25.38;;;5.60;99.90;;;;;;5122907;27;20284;-79
2022/01/16 09:42:43;;;;;;;57.25;24.70;;;5.70;99.90;;;;;;5103908;28;20040;-80
2022/01/16 09:45:11;;;;;;;55.95;24.35;;;5.70;99.90;;;;;;5117112;27;20445;-80
2022/01/16 09:47:37;;;;;;;52.20;23.48;;;5.70;99.90;;;;;;5119019;27;20059;-80
2022/01/16 09:50:07;;;;;;;58.28;24.98;;;5.60;99.90;;;;;;5124959;27;20090;-81
2022/01/16 09:52:38;;;;;;;51.00;24.05;;;5.70;99.90;;;;;;5129267;27;20035;-84
2022/01/16 09:55:05;;;;;;;52.45;25.05;;;5.80;99.90;;;;;;5123190;27;20201;-85
2022/01/16 09:57:31;;;;;;;53.28;24.40;;;5.80;99.90;;;;;;5117990;27;20039;-79
2022/01/16 09:59:57;;;;;;;48.92;22.75;;;5.80;99.90;;;;;;5131213;27;20356;-80
2022/01/16 10:02:23;;;;;;;51.85;23.05;;;5.90;99.90;;;;;;5082441;28;20035;-80
2022/01/16 10:04:49;;;;;;;47.00;21.33;;;6.20;99.90;;;;;;5120045;27;20055;-81
2022/01/16 10:07:17;;;;;;;43.55;21.38;;;6.40;99.90;;;;;;5128080;27;20301;-80
2022/01/16 10:09:46;;;;;;;45.67;21.40;;;6.00;99.90;;;;;;5118075;27;20145;-77
2022/01/16 10:12:17;;;;;;;46.00;21.33;;;6.90;99.90;;;;;;5107731;27;20027;-81
2022/01/16 10:14:49;;;;;;;48.65;22.25;;;6.20;99.90;;;;;;5126968;27;20039;-80
2022/01/16 10:17:22;;;;;;;40.90;20.95;;;6.70;99.90;;;;;;5123983;27;20047;-79
2022/01/16 10:20:07;;;;;;;46.35;22.02;;;6.10;99.90;;;;;;5121847;27;20031;-79
2022/01/16 10:22:52;;;;;;;38.72;19.55;;;6.10;99.90;;;;;;5121984;27;20042;-79
2022/01/16 10:25:43;;;;;;;39.63;20.15;;;6.20;99.90;;;;;;5121759;27;20042;-79
2022/01/16 10:28:15;;;;;;;44.80;21.25;;;6.40;99.90;;;;;;5122813;27;20047;-79
2022/01/16 10:30:47;;;;;;;41.42;20.55;;;6.30;99.90;;;;;;5119681;27;20501;-82
2022/01/16 10:33:16;;;;;;;45.95;20.35;;;6.30;99.90;;;;;;5104320;27;20039;-78
2022/01/16 10:35:43;;;;;;;40.30;19.35;;;6.40;99.90;;;;;;5103524;27;20562;-77
2022/01/16 10:38:15;;;;;;;44.15;20.67;;;6.40;99.90;;;;;;5122084;27;20507;-79
2022/01/16 10:40:41;;;;;;;42.00;19.27;;;7.30;99.90;;;;;;5117381;27;20039;-79
2022/01/16 10:43:13;;;;;;;43.13;19.75;;;6.40;99.90;;;;;;5108222;27;20038;-79
2022/01/16 10:45:40;;;;;;;42.92;18.98;;;6.40;99.90;;;;;;5132939;27;20077;-78
2022/01/16 10:48:06;;;;;;;38.50;19.48;;;6.40;99.90;;;;;;5089637;27;20107;-79
2022/01/16 10:50:38;;;;;;;37.83;18.63;;;6.50;99.90;;;;;;5127651;27;20045;-79
2022/01/16 10:53:09;;;;;;;44.25;18.23;;;6.50;99.90;;;;;;5104620;27;20095;-79
2022/01/16 10:55:41;;;;;;;38.85;18.15;;;6.60;99.90;;;;;;5127536;27;20035;-79
2022/01/16 10:58:37;;;;;;;37.90;17.75;;;6.70;99.90;;;;;;5124289;27;20066;-79
2022/01/16 11:01:13;;;;;;;33.63;16.83;;;6.60;99.90;;;;;;5117895;27;20088;-79
2022/01/16 11:03:39;;;;;;;37.90;17.20;;;6.60;99.90;;;;;;5104718;27;20031;-79
2022/01/16 11:06:05;;;;;;;36.77;16.97;;;6.70;99.90;;;;;;5102726;27;20425;-78
2022/01/16 11:08:32;;;;;;;29.25;15.57;;;6.60;99.90;;;;;;5106881;27;20700;-79
2022/01/16 11:10:59;;;;;;;36.95;16.85;;;6.70;99.90;;;;;;5104611;27;20122;-79
2022/01/16 11:13:34;;;;;;;33.92;16.15;;;6.60;99.90;;;;;;5118506;27;20032;-80
2022/01/16 11:16:03;;;;;;;29.92;15.10;;;6.60;99.90;;;;;;5117004;27;20069;-80
2022/01/16 11:18:37;;;;;;;33.42;15.50;;;6.60;99.90;;;;;;5122509;27;20126;-80
2022/01/16 11:23:47;;;;;;;;;;;6.60;99.90;;;;;;5117972;27;20435;-80
2022/01/16 11:26:14;;;;;;;35.67;14.55;;;6.60;99.90;;;;;;5119541;27;19915;-79
2022/01/16 11:28:40;;;;;;;32.47;15.50;;;6.60;99.90;;;;;;5122193;27;20052;-78
2022/01/16 11:31:09;;;;;;;28.00;14.65;;;6.60;99.90;;;;;;5123792;27;20075;-78
2022/01/16 11:33:36;;;;;;;29.83;14.05;;;6.60;99.90;;;;;;5128802;27;20066;-79
2022/01/16 11:36:09;;;;;;;26.42;12.70;;;6.60;99.90;;;;;;5112351;27;20064;-78
2022/01/16 11:38:37;;;;;;;32.58;13.48;;;6.60;99.90;;;;;;5110495;27;20039;-78
2022/01/16 11:41:17;;;;;;;37.38;13.05;;;6.60;99.90;;;;;;5112848;27;20483;-78
2022/01/16 11:43:48;;;;;;;28.98;14.48;;;6.60;99.90;;;;;;5122873;27;20043;-76
2022/01/16 11:46:18;;;;;;;28.38;13.20;;;6.60;99.90;;;;;;5121287;27;20067;-77
2022/01/16 11:48:47;;;;;;;26.33;11.45;;;6.70;99.90;;;;;;5111852;27;20130;-78
2022/01/16 11:51:35;;;;;;;26.88;11.60;;;6.70;99.90;;;;;;5116532;27;20525;-82
2022/01/16 11:54:15;;;;;;;29.75;12.02;;;6.60;99.90;;;;;;5112920;27;20031;-77
2022/01/16 11:56:41;;;;;;;22.95;10.27;;;6.70;99.90;;;;;;5115008;27;20035;-76
2022/01/16 11:59:21;;;;;;;25.10;10.73;;;6.80;99.90;;;;;;5101012;27;20089;-78
2022/01/16 12:02:05;;;;;;;23.15;10.35;;;6.80;99.90;;;;;;5114615;27;20285;-77
2022/01/16 12:04:31;;;;;;;21.05;10.05;;;6.70;99.90;;;;;;5120205;27;20043;-77
2022/01/16 12:07:31;;;;;;;19.77;9.93;;;6.90;99.90;;;;;;5121916;27;20041;-77
2022/01/16 12:09:57;;;;;;;24.73;8.77;;;6.80;99.90;;;;;;5112021;27;20062;-77
2022/01/16 12:12:26;;;;;;;26.65;9.35;;;6.80;99.90;;;;;;5120819;27;20075;-78
2022/01/16 12:14:59;;;;;;;19.08;8.45;;;7.10;99.90;;;;;;5098790;27;20043;-78
2022/01/16 12:17:42;;;;;;;24.02;8.40;;;6.90;99.90;;;;;;5115699;27;20078;-79
2022/01/16 12:20:27;;;;;;;18.90;7.60;;;6.90;99.90;;;;;;5123300;27;20042;-80
2022/01/16 12:22:53;;;;;;;18.30;7.53;;;6.80;99.90;;;;;;5110236;27;20066;-79
2022/01/16 12:25:23;;;;;;;21.40;8.35;;;6.90;99.90;;;;;;5134210;27;20050;-78
2022/01/16 12:28:05;;;;;;;19.35;8.35;;;6.90;99.90;;;;;;5098321;27;20039;-80
2022/01/16 12:30:55;;;;;;;20.50;7.60;;;6.90;99.90;;;;;;5111601;27;20039;-76
2022/01/16 12:33:38;;;;;;;19.98;7.47;;;6.90;99.90;;;;;;5113473;27;20389;-77
2022/01/16 12:36:09;;;;;;;16.63;6.78;;;7.10;99.90;;;;;;5104750;27;20051;-75
2022/01/16 12:39:06;;;;;;;20.13;7.15;;;6.90;99.90;;;;;;5102194;27;20096;-75
2022/01/16 12:41:42;;;;;;;18.92;7.28;;;6.90;99.90;;;;;;5107202;27;20043;-75
2022/01/16 12:44:14;;;;;;;14.57;6.70;;;6.90;99.90;;;;;;5133342;27;20507;-75
2022/01/16 12:46:46;;;;;;;16.52;6.43;;;6.80;99.90;;;;;;5125760;27;20050;-75
2022/01/16 12:49:18;;;;;;;13.02;6.28;;;6.90;99.90;;;;;;5095398;28;20407;-76
2022/01/16 12:51:49;;;;;;;18.05;6.80;;;6.90;99.90;;;;;;5117255;27;20038;-76
2022/01/16 12:54:17;;;;;;;16.02;6.95;;;7.00;99.90;;;;;;5088283;28;20048;-75
2022/01/16 12:56:47;;;;;;;17.75;6.60;;;7.00;99.90;;;;;;5123809;28;20043;-75
2022/01/16 12:59:16;;;;;;;14.50;6.57;;;7.00;99.90;;;;;;5123087;28;20379;-77
2022/01/16 13:01:57;;;;;;;15.80;6.88;;;7.10;99.90;;;;;;5102077;28;20073;-75
2022/01/16 13:04:30;;;;;;;11.73;6.47;;;7.00;99.90;;;;;;5117145;28;20471;-77
2022/01/16 13:06:58;;;;;;;16.13;6.63;;;7.00;99.90;;;;;;5114362;28;20035;-77
2022/01/16 13:09:25;;;;;;;15.48;7.30;;;7.00;99.90;;;;;;5118153;28;20498;-78
2022/01/16 13:11:55;;;;;;;13.00;6.72;;;7.10;99.90;;;;;;5107847;28;20448;-77
2022/01/16 13:14:26;;;;;;;19.80;6.88;;;7.00;99.90;;;;;;5114100;28;20044;-77
2022/01/16 13:16:59;;;;;;;18.30;6.45;;;7.00;99.90;;;;;;5109841;28;20051;-77
2022/01/16 13:19:28;;;;;;;16.02;6.60;;;7.10;99.90;;;;;;5120400;28;20047;-77
2022/01/16 13:24:39;;;;;;;21.38;7.03;;;7.00;99.90;;;;;;5120833;28;20088;-77
2022/01/16 13:27:08;;;;;;;20.02;7.95;;;7.00;99.90;;;;;;5119837;28;20162;-77
2022/01/16 13:29:37;;;;;;;16.95;6.93;;;7.10;99.90;;;;;;5110481;28;20080;-78
2022/01/16 13:32:05;;;;;;;14.52;6.82;;;7.10;99.90;;;;;;5120387;28;20035;-78
2022/01/16 13:34:43;;;;;;;15.63;7.15;;;6.90;99.90;;;;;;5100158;28;20035;-78